createdAt,value
2018-03-14T00:00:14.196Z,6.47
2018-03-14T00:02:41.760Z,6.97
2018-03-14T00:05:09.281Z,6.53
2018-03-14T00:07:36.829Z,7.33
2018-03-14T00:10:09.405Z,8.50
2018-03-14T00:12:37.720Z,7.10
2018-03-14T00:15:05.242Z,7.33
2018-03-14T00:17:33.529Z,9.37
2018-03-14T00:20:01.085Z,9.20
2018-03-14T00:22:34.313Z,9.20
2018-03-14T00:25:01.890Z,9.00
2018-03-14T00:27:29.432Z,8.27
2018-03-14T00:29:56.992Z,8.50
2018-03-14T00:32:25.197Z,7.60
2018-03-14T00:34:57.075Z,9.00
2018-03-14T00:37:25.373Z,7.90
2018-03-14T00:39:52.917Z,8.83
2018-03-14T00:42:21.232Z,6.70
2018-03-14T00:44:48.778Z,7.33
2018-03-14T00:47:16.336Z,6.03
2018-03-14T00:49:43.861Z,8.40
2018-03-14T00:52:11.426Z,5.57
2018-03-14T00:54:39.797Z,6.37
2018-03-14T00:57:07.330Z,5.47
2018-03-14T00:59:34.854Z,6.20
2018-03-14T01:02:02.376Z,6.90
2018-03-14T01:04:29.923Z,5.90
2018-03-14T01:06:57.438Z,6.57
2018-03-14T01:09:24.976Z,8.97
2018-03-14T01:11:53.384Z,8.23
2018-03-14T01:14:21.186Z,7.97
2018-03-14T01:16:48.701Z,5.93
2018-03-14T01:19:16.249Z,6.57
2018-03-14T01:21:43.861Z,10.63
2018-03-14T01:24:11.399Z,7.90
2018-03-14T01:26:38.931Z,7.87
2018-03-14T01:29:06.458Z,6.60
2018-03-14T01:31:33.987Z,8.40
2018-03-14T01:34:01.534Z,8.70
2018-03-14T01:36:29.757Z,7.77
2018-03-14T01:38:58.078Z,5.47
2018-03-14T01:41:25.613Z,4.47
2018-03-14T01:43:53.907Z,6.13
2018-03-14T01:46:21.442Z,6.60
2018-03-14T01:48:49.782Z,6.27
2018-03-14T01:51:18.066Z,6.50
2018-03-14T01:53:45.592Z,4.90
2018-03-14T01:56:13.137Z,5.97
2018-03-14T01:58:40.656Z,6.00
2018-03-14T02:01:08.210Z,6.73
2018-03-14T02:03:36.260Z,6.27
2018-03-14T02:06:03.790Z,6.73
2018-03-14T02:08:31.310Z,4.13
2018-03-14T02:10:58.846Z,5.90
2018-03-14T02:13:27.157Z,6.03
2018-03-14T02:15:55.450Z,8.27
2018-03-14T02:18:23.013Z,6.30
2018-03-14T02:20:50.534Z,4.73
2018-03-14T02:23:18.095Z,6.83
2018-03-14T02:25:45.626Z,6.03
2018-03-14T02:28:13.153Z,4.50
2018-03-14T02:30:40.678Z,7.77
2018-03-14T02:33:08.237Z,4.87
2018-03-14T02:35:35.798Z,5.50
2018-03-14T02:38:03.329Z,4.47
2018-03-14T02:40:30.866Z,6.10
2018-03-14T02:42:58.394Z,6.63
2018-03-14T02:45:26.767Z,6.03
2018-03-14T02:47:54.285Z,6.83
2018-03-14T02:50:22.253Z,5.63
2018-03-14T02:52:49.760Z,8.93
2018-03-14T02:55:17.677Z,6.57
2018-03-14T02:57:45.222Z,6.43
2018-03-14T03:00:12.783Z,9.13
2018-03-14T03:02:40.299Z,6.93
2018-03-14T03:05:07.802Z,5.33
2018-03-14T03:07:35.331Z,6.80
2018-03-14T03:10:03.680Z,7.40
2018-03-14T03:12:32.050Z,7.13
2018-03-14T03:14:59.558Z,9.40
2018-03-14T03:17:28.183Z,10.20
2018-03-14T03:19:55.725Z,9.53
2018-03-14T03:22:23.268Z,6.47
2018-03-14T03:24:51.550Z,6.47
2018-03-14T03:27:19.820Z,7.43
2018-03-14T03:29:48.434Z,6.60
2018-03-14T03:32:15.953Z,7.87
2018-03-14T03:34:44.578Z,7.83
2018-03-14T03:37:12.098Z,7.37
2018-03-14T03:39:40.373Z,5.73
2018-03-14T03:42:08.662Z,8.03
2018-03-14T03:44:36.924Z,6.27
2018-03-14T03:47:04.461Z,4.17
2018-03-14T03:49:31.955Z,5.80
2018-03-14T03:52:00.227Z,3.27
2018-03-14T03:54:28.519Z,5.20
2018-03-14T03:56:56.780Z,7.03
2018-03-14T03:59:25.281Z,3.83
2018-03-14T04:01:52.861Z,4.23
2018-03-14T04:04:20.388Z,4.33
2018-03-14T04:06:48.669Z,3.93
2018-03-14T04:09:16.967Z,4.33
2018-03-14T04:11:44.480Z,5.20
2018-03-14T04:14:11.981Z,4.60
2018-03-14T04:16:39.510Z,6.83
2018-03-14T04:19:07.788Z,5.63
2018-03-14T04:21:36.091Z,8.47
2018-03-14T04:24:03.615Z,6.07
2018-03-14T04:26:31.120Z,7.67
2018-03-14T04:29:02.541Z,7.73
2018-03-14T04:31:30.898Z,7.57
2018-03-14T04:33:58.359Z,6.80
2018-03-14T04:36:25.953Z,8.27
2018-03-14T04:38:53.483Z,8.90
2018-03-14T04:41:21.017Z,7.93
2018-03-14T04:43:48.511Z,9.00
2018-03-14T04:46:17.033Z,7.57
2018-03-14T04:48:44.535Z,7.23
2018-03-14T04:51:12.970Z,8.43
2018-03-14T04:53:40.467Z,8.90
2018-03-14T04:56:08.001Z,8.13
2018-03-14T04:58:35.531Z,8.97
2018-03-14T05:01:03.053Z,11.97
2018-03-14T05:03:30.694Z,6.80
2018-03-14T05:05:58.204Z,7.33
2018-03-14T05:08:25.737Z,11.17
2018-03-14T05:10:53.249Z,7.33
2018-03-14T05:13:20.799Z,7.10
2018-03-14T05:15:49.019Z,8.67
2018-03-14T05:18:16.536Z,8.87
2018-03-14T05:20:44.315Z,6.70
2018-03-14T05:23:11.848Z,6.70
2018-03-14T05:25:39.369Z,8.40
2018-03-14T05:28:06.884Z,9.33
2018-03-14T05:30:34.418Z,7.30
2018-03-14T05:33:02.694Z,8.87
2018-03-14T05:35:31.018Z,9.20
2018-03-14T05:37:59.286Z,7.73
2018-03-14T05:40:26.810Z,9.20
2018-03-14T05:42:54.337Z,9.50
2018-03-14T05:45:21.854Z,11.70
2018-03-14T05:47:49.414Z,8.20
2018-03-14T05:50:16.896Z,10.17
2018-03-14T05:52:44.426Z,10.00
2018-03-14T05:55:11.934Z,8.60
2018-03-14T05:57:40.637Z,7.80
2018-03-14T06:00:08.926Z,9.23
2018-03-14T06:02:37.214Z,8.90
2018-03-14T06:05:10.678Z,9.97
2018-03-14T06:07:38.186Z,10.70
2018-03-14T06:10:06.555Z,10.20
2018-03-14T06:12:34.066Z,10.97
2018-03-14T06:15:02.197Z,9.30
2018-03-14T06:17:29.732Z,8.23
2018-03-14T06:19:57.269Z,7.53
2018-03-14T06:22:26.152Z,9.50
2018-03-14T06:37:53.720Z,7.40
2018-03-14T06:40:21.992Z,7.07
2018-03-14T06:42:50.291Z,9.03
2018-03-14T06:45:18.616Z,7.27
2018-03-14T06:47:46.144Z,8.03
2018-03-14T06:50:14.922Z,9.43
2018-03-14T06:52:43.156Z,10.07
2018-03-14T06:55:12.184Z,6.93
2018-03-14T06:57:40.398Z,15.90
2018-03-14T07:00:24.982Z,10.20
2018-03-14T07:05:59.843Z,8.87
2018-03-14T07:08:28.281Z,8.13
2018-03-14T07:10:56.805Z,6.23
2018-03-14T07:13:25.186Z,7.10
2018-03-14T07:15:52.701Z,10.70
2018-03-14T07:18:24.613Z,9.70
2018-03-14T07:20:52.298Z,12.47
2018-03-14T07:23:23.855Z,9.80
2018-03-14T07:25:52.124Z,8.83
2018-03-14T07:28:20.418Z,8.53
2018-03-14T07:30:47.933Z,6.67
2018-03-14T07:33:15.467Z,8.80
2018-03-14T07:35:44.133Z,7.30
2018-03-14T07:38:12.002Z,8.70
2018-03-14T07:40:39.550Z,7.30
2018-03-14T07:43:07.069Z,10.30
2018-03-14T07:45:34.617Z,5.97
2018-03-14T07:48:06.021Z,7.13
2018-03-14T07:50:33.562Z,12.67
2018-03-14T07:53:01.865Z,10.07
2018-03-14T07:55:29.519Z,8.47
2018-03-14T07:57:57.150Z,5.97
2018-03-14T08:00:25.466Z,6.97
2018-03-14T08:02:52.971Z,7.47
2018-03-14T08:05:20.629Z,9.47
2018-03-14T08:07:48.156Z,8.13
2018-03-14T08:10:15.675Z,7.87
2018-03-14T08:12:44.220Z,9.83
2018-03-14T08:15:11.758Z,10.07
2018-03-14T08:17:39.311Z,7.63
2018-03-14T08:20:06.837Z,8.30
2018-03-14T08:22:56.889Z,8.00
2018-03-14T08:25:24.865Z,7.90
2018-03-14T08:27:56.732Z,7.30
2018-03-14T08:30:24.300Z,8.23
2018-03-14T08:32:51.813Z,9.00
2018-03-14T08:35:20.234Z,7.30
2018-03-14T08:37:47.847Z,8.13
2018-03-14T08:40:15.381Z,6.90
2018-03-14T08:42:43.673Z,6.37
2018-03-14T08:45:11.206Z,6.93
2018-03-14T08:47:39.522Z,7.27
2018-03-14T08:50:07.038Z,8.03
2018-03-14T08:52:36.414Z,7.17
2018-03-14T08:55:07.618Z,5.87
2018-03-14T08:57:35.242Z,7.23
2018-03-14T09:00:02.750Z,8.07
2018-03-14T09:02:30.561Z,5.47
2018-03-14T09:04:58.078Z,6.37
2018-03-14T09:07:26.224Z,4.10
2018-03-14T09:09:54.497Z,6.57
2018-03-14T09:12:22.783Z,7.60
2018-03-14T09:14:50.336Z,6.60
2018-03-14T09:17:18.624Z,7.37
2018-03-14T09:19:46.182Z,4.17
2018-03-14T09:22:13.704Z,7.43
2018-03-14T09:24:41.254Z,7.60
2018-03-14T09:27:12.782Z,4.83
2018-03-14T09:29:40.721Z,6.90
2018-03-14T09:32:08.486Z,7.53
2018-03-14T09:34:37.395Z,5.27
2018-03-14T09:37:06.538Z,6.10
2018-03-14T09:39:34.050Z,6.97
2018-03-14T09:42:01.570Z,9.93
2018-03-14T09:44:31.828Z,5.87
2018-03-14T09:47:03.222Z,3.40
2018-03-14T09:49:34.185Z,10.13
2018-03-14T09:52:02.497Z,10.53
2018-03-14T09:54:30.276Z,6.00
2018-03-14T09:56:58.213Z,6.60
2018-03-14T09:59:26.820Z,6.90
2018-03-14T10:01:54.341Z,5.83
2018-03-14T10:04:22.618Z,4.77
2018-03-14T10:06:51.239Z,6.23
2018-03-14T10:09:18.794Z,6.40
2018-03-14T10:11:47.027Z,5.27
2018-03-14T10:14:14.552Z,3.73
2018-03-14T10:16:47.865Z,6.50
2018-03-14T10:19:15.437Z,4.27
2018-03-14T10:21:42.965Z,4.33
2018-03-14T10:24:10.473Z,4.80
2018-03-14T10:26:38.752Z,4.57
2018-03-14T10:29:07.058Z,7.13
2018-03-14T10:31:35.328Z,6.37
2018-03-14T10:34:03.535Z,4.37
2018-03-14T10:36:31.583Z,5.53
2018-03-14T10:38:59.752Z,4.90
2018-03-14T10:41:27.280Z,5.50
2018-03-14T10:43:55.832Z,2.93
2018-03-14T10:46:23.413Z,2.17
2018-03-14T10:48:50.930Z,6.10
2018-03-14T10:51:18.448Z,3.50
2018-03-14T10:53:47.066Z,5.57
2018-03-14T10:56:14.566Z,5.87
2018-03-14T10:58:42.324Z,5.03
2018-03-14T11:01:09.897Z,5.57
2018-03-14T11:03:43.093Z,1.93
2018-03-14T11:06:11.602Z,4.67
2018-03-14T11:08:40.533Z,3.63
2018-03-14T11:11:08.067Z,3.73
2018-03-14T11:13:35.570Z,2.53
2018-03-14T11:16:03.102Z,2.53
2018-03-14T11:18:30.601Z,3.47
2018-03-14T11:20:58.118Z,4.17
2018-03-14T11:23:30.793Z,6.33
2018-03-14T11:25:58.314Z,4.60
2018-03-14T11:28:26.637Z,5.50
2018-03-14T11:30:54.162Z,4.80
2018-03-14T11:33:22.475Z,3.23
2018-03-14T11:35:50.157Z,2.77
2018-03-14T11:38:18.446Z,3.60
2018-03-14T11:40:45.951Z,3.17
2018-03-14T11:43:13.547Z,3.93
2018-03-14T11:45:41.172Z,4.83
2018-03-14T11:48:08.699Z,3.43
2018-03-14T11:50:36.193Z,4.73
2018-03-14T11:53:03.715Z,3.00
2018-03-14T11:55:31.218Z,3.77
2018-03-14T11:57:58.737Z,2.50
2018-03-14T12:00:26.250Z,2.63
2018-03-14T12:02:53.782Z,3.20
2018-03-14T12:05:22.283Z,3.77
2018-03-14T12:07:49.857Z,6.20
2018-03-14T12:10:17.800Z,4.17
2018-03-14T12:12:49.090Z,2.60
2018-03-14T12:15:16.636Z,3.77
2018-03-14T12:17:44.172Z,4.70
2018-03-14T12:20:11.697Z,4.07
2018-03-14T12:22:39.764Z,2.47
2018-03-14T12:25:07.337Z,2.20
2018-03-14T12:27:36.213Z,3.40
2018-03-14T12:30:08.642Z,4.43
2018-03-14T12:32:36.657Z,4.60
2018-03-14T12:35:05.264Z,3.07
2018-03-14T12:37:33.559Z,3.57
2018-03-14T12:40:01.058Z,6.00
2018-03-14T12:42:28.586Z,3.77
2018-03-14T12:44:56.092Z,4.03
2018-03-14T12:47:24.334Z,3.77
2018-03-14T12:49:55.852Z,4.77
2018-03-14T12:52:23.649Z,3.33
2018-03-14T12:54:51.157Z,3.23
2018-03-14T12:57:19.431Z,3.97
2018-03-14T12:59:47.772Z,3.77
2018-03-14T13:02:15.394Z,3.13
2018-03-14T13:04:47.517Z,4.67
2018-03-14T13:07:15.036Z,2.70
2018-03-14T13:09:42.558Z,6.13
2018-03-14T13:12:10.880Z,3.97
2018-03-14T13:14:38.440Z,4.30
2018-03-14T13:17:05.978Z,4.03
2018-03-14T13:19:33.502Z,5.70
2018-03-14T13:22:36.211Z,5.80
2018-03-14T13:25:09.552Z,2.77
2018-03-14T13:27:41.075Z,3.73
2018-03-14T13:30:10.342Z,6.27
2018-03-14T13:32:38.020Z,3.07
2018-03-14T13:35:05.873Z,3.87
2018-03-14T13:37:33.479Z,4.97
2018-03-14T13:40:01.032Z,3.87
2018-03-14T13:42:28.555Z,7.10
2018-03-14T13:44:56.852Z,4.40
2018-03-14T13:47:25.160Z,3.10
2018-03-14T13:49:56.638Z,8.33
2018-03-14T13:52:24.157Z,4.83
2018-03-14T13:54:51.673Z,4.20
2018-03-14T13:57:19.186Z,7.13
2018-03-14T13:59:47.164Z,4.17
2018-03-14T14:02:15.185Z,4.10
2018-03-14T14:04:43.496Z,5.43
2018-03-14T14:07:11.703Z,2.67
2018-03-14T14:09:39.231Z,3.30
2018-03-14T14:12:06.746Z,4.90
2018-03-14T14:14:35.039Z,3.93
2018-03-14T14:17:03.373Z,4.33
2018-03-14T14:19:35.031Z,3.00
2018-03-14T14:22:03.379Z,2.93
2018-03-14T14:24:30.892Z,3.07
2018-03-14T14:26:58.408Z,5.33
2018-03-14T14:29:25.938Z,2.97
2018-03-14T14:31:53.489Z,3.87
2018-03-14T14:34:21.813Z,3.10
2018-03-14T14:36:49.329Z,4.30
2018-03-14T14:39:18.532Z,5.97
2018-03-14T14:41:46.844Z,3.83
2018-03-14T14:44:14.398Z,3.90
2018-03-14T14:46:42.909Z,5.33
2018-03-14T14:49:10.438Z,3.13
2018-03-14T14:51:38.351Z,5.00
2018-03-14T14:54:05.868Z,4.60
2018-03-14T14:56:33.377Z,3.53
2018-03-14T14:59:00.997Z,3.23
2018-03-14T15:01:29.339Z,3.67
2018-03-14T15:04:01.751Z,4.93
2018-03-14T15:06:30.583Z,3.77
2018-03-14T15:09:02.857Z,4.60
2018-03-14T15:11:30.378Z,4.30
2018-03-14T15:13:58.506Z,4.70
2018-03-14T15:16:26.792Z,5.07
2018-03-14T15:18:55.392Z,3.30
2018-03-14T15:21:23.053Z,3.87
2018-03-14T15:23:50.489Z,4.27
2018-03-14T15:26:19.317Z,4.07
2018-03-14T15:30:26.071Z,4.53
2018-03-14T15:32:53.588Z,5.27
2018-03-14T15:35:21.765Z,3.53
2018-03-14T15:37:49.269Z,4.47
2018-03-14T15:40:17.308Z,5.93
2018-03-14T15:42:49.506Z,3.57
2018-03-14T15:45:18.244Z,3.80
2018-03-14T15:47:50.432Z,4.57
2018-03-14T15:50:23.810Z,3.00
2018-03-14T15:52:51.327Z,4.87
2018-03-14T16:08:24.669Z,8.50
2018-03-14T16:10:52.961Z,8.07
2018-03-14T16:13:22.422Z,8.43
2018-03-14T16:15:49.974Z,9.80
2018-03-14T16:18:18.590Z,11.53
2018-03-14T16:20:46.168Z,9.93
2018-03-14T16:23:14.503Z,9.40
2018-03-14T16:25:42.546Z,8.50
2018-03-14T16:28:10.157Z,7.73
2018-03-14T16:30:37.656Z,6.70
2018-03-14T16:33:05.199Z,8.20
2018-03-14T16:35:33.821Z,9.47
2018-03-14T16:38:01.363Z,6.63
2018-03-14T16:40:28.891Z,7.93
2018-03-14T16:42:56.451Z,5.40
2018-03-14T16:45:24.054Z,8.47
2018-03-14T16:47:51.666Z,5.20
2018-03-14T16:50:19.204Z,6.83
2018-03-14T16:52:46.798Z,8.37
2018-03-14T16:55:14.425Z,10.90
2018-03-14T16:57:41.965Z,10.87
2018-03-14T17:00:09.921Z,9.63
2018-03-14T17:02:37.456Z,8.33
2018-03-14T17:05:05.744Z,8.43
2018-03-14T17:07:34.059Z,7.70
2018-03-14T17:10:01.571Z,6.00
2018-03-14T17:12:29.843Z,8.00
2018-03-14T17:14:58.546Z,6.83
2018-03-14T17:17:26.817Z,5.03
2018-03-14T17:19:59.258Z,5.20
2018-03-14T17:22:30.882Z,14.77
2018-03-14T17:24:58.433Z,15.23
2018-03-14T17:27:29.944Z,7.83
2018-03-14T17:29:58.235Z,9.00
2018-03-14T17:32:26.521Z,11.23
2018-03-14T17:34:57.872Z,10.17
2018-03-14T17:37:25.385Z,7.30
2018-03-14T17:39:52.923Z,8.40
2018-03-14T17:42:21.222Z,9.53
2018-03-14T17:44:48.746Z,10.37
2018-03-14T17:47:17.227Z,11.10
2018-03-14T17:49:48.823Z,10.00
2018-03-14T17:52:16.437Z,9.20
2018-03-14T17:54:43.954Z,9.70
2018-03-14T17:57:16.319Z,9.33
2018-03-14T17:59:44.659Z,8.03
2018-03-14T18:02:12.651Z,7.67
2018-03-14T18:04:48.517Z,8.30
2018-03-14T18:07:20.863Z,11.20
2018-03-14T18:09:49.258Z,13.27
2018-03-14T18:12:16.749Z,7.37
2018-03-14T18:14:45.766Z,7.73
2018-03-14T18:17:13.284Z,6.03
2018-03-14T18:19:44.886Z,6.23
2018-03-14T18:22:12.410Z,7.93
2018-03-14T18:24:40.700Z,9.13
2018-03-14T18:27:09.026Z,7.57
2018-03-14T18:29:37.444Z,14.70
2018-03-14T18:32:05.113Z,8.97
2018-03-14T18:34:33.433Z,8.73
2018-03-14T18:37:00.941Z,10.30
2018-03-14T18:39:28.466Z,7.27
2018-03-14T18:41:55.978Z,6.80
2018-03-14T18:44:24.273Z,10.70
2018-03-14T18:46:52.464Z,7.93
2018-03-14T18:49:19.991Z,6.53
2018-03-14T18:51:49.037Z,9.30
2018-03-14T18:54:17.264Z,8.30
2018-03-14T18:56:45.532Z,9.80
2018-03-14T18:59:14.050Z,8.43
2018-03-14T19:01:41.563Z,8.27
2018-03-14T19:04:09.772Z,8.90
2018-03-14T19:06:41.222Z,6.60
2018-03-14T19:09:12.583Z,6.50
2018-03-14T19:11:44.145Z,6.90
2018-03-14T19:14:11.656Z,8.50
2018-03-14T19:16:39.259Z,6.90
2018-03-14T19:19:10.682Z,7.57
2018-03-14T19:21:39.945Z,6.83
2018-03-14T19:24:07.484Z,9.50
2018-03-14T19:26:35.010Z,8.50
2018-03-14T19:29:02.537Z,7.73
2018-03-14T19:31:30.973Z,8.17
2018-03-14T19:33:58.488Z,10.13
2018-03-14T19:36:27.768Z,14.93
2018-03-14T19:38:55.357Z,12.57
2018-03-14T19:41:22.860Z,9.30
2018-03-14T19:43:50.388Z,11.90
2018-03-14T19:46:22.778Z,9.50
2018-03-14T19:48:50.342Z,12.23
2018-03-14T19:51:17.878Z,11.03
2018-03-14T19:53:45.738Z,10.83
2018-03-14T19:56:18.348Z,12.13
2018-03-14T19:58:46.621Z,9.37
2018-03-14T20:01:20.092Z,10.07
2018-03-14T20:03:48.426Z,9.73
2018-03-14T20:06:17.033Z,10.33
2018-03-14T20:08:45.058Z,10.53
2018-03-14T20:11:16.803Z,12.67
2018-03-14T20:13:44.756Z,9.73
2018-03-14T20:16:13.036Z,11.03
2018-03-14T20:18:45.473Z,10.47
2018-03-14T20:21:12.985Z,10.03
2018-03-14T20:23:40.531Z,11.33
2018-03-14T20:26:08.050Z,9.13
2018-03-14T20:28:35.617Z,9.83
2018-03-14T20:31:03.210Z,9.43
2018-03-14T20:33:30.789Z,9.03
2018-03-14T20:35:58.326Z,12.87
2018-03-14T20:51:30.883Z,8.67
2018-03-14T20:53:59.167Z,8.60
2018-03-14T21:09:26.733Z,6.87
2018-03-14T21:11:54.280Z,16.77
2018-03-14T21:14:26.601Z,8.43
2018-03-14T21:16:54.105Z,7.97
2018-03-14T21:19:22.417Z,6.70
2018-03-14T21:21:49.934Z,8.07
2018-03-14T21:24:18.222Z,8.53
2018-03-14T21:26:46.533Z,9.03
2018-03-14T21:29:14.351Z,7.63
2018-03-14T21:31:42.655Z,6.80
2018-03-14T21:47:10.216Z,8.13
2018-03-14T21:49:37.745Z,8.53
2018-03-14T21:52:07.001Z,9.53
2018-03-14T21:54:34.551Z,12.70
2018-03-14T21:57:14.230Z,11.07
2018-03-14T21:59:42.556Z,9.73
2018-03-14T22:02:10.090Z,9.83
2018-03-14T22:04:39.915Z,9.50
2018-03-14T22:07:07.442Z,9.80
2018-03-14T22:09:34.955Z,13.80
2018-03-14T22:12:02.574Z,10.40
2018-03-14T22:14:30.167Z,22.57
2018-03-14T22:17:02.528Z,9.10
2018-03-14T22:19:30.045Z,10.43
2018-03-14T22:21:57.967Z,12.27
2018-03-14T22:24:25.490Z,11.70
2018-03-14T22:26:54.262Z,12.37
2018-03-14T22:29:21.773Z,11.50
2018-03-14T22:31:49.565Z,10.77
2018-03-14T22:34:17.869Z,10.87
2018-03-14T22:36:46.074Z,12.77
2018-03-14T22:39:14.407Z,9.57
2018-03-14T22:41:41.919Z,11.80
2018-03-14T22:44:09.453Z,11.17
2018-03-14T22:46:38.480Z,13.10
2018-03-14T22:49:06.725Z,11.93
2018-03-14T22:51:35.030Z,14.97
2018-03-14T22:54:02.584Z,13.20
2018-03-14T22:56:30.121Z,12.23
2018-03-14T22:58:58.422Z,12.43
2018-03-14T23:01:27.272Z,12.73
2018-03-14T23:03:54.807Z,11.43
2018-03-14T23:06:22.335Z,15.30
2018-03-14T23:08:49.915Z,12.13
2018-03-14T23:11:17.501Z,13.90
2018-03-14T23:13:45.321Z,13.93
2018-03-14T23:16:12.824Z,14.60
2018-03-14T23:18:44.401Z,12.67
2018-03-14T23:21:11.909Z,12.57
2018-03-14T23:23:39.432Z,13.97
2018-03-14T23:26:07.886Z,15.30
2018-03-14T23:28:35.412Z,14.13
2018-03-14T23:31:02.921Z,14.83
2018-03-14T23:33:30.470Z,15.73
2018-03-14T23:35:58.744Z,15.83
2018-03-14T23:38:26.263Z,16.70
2018-03-14T23:40:58.057Z,16.07
2018-03-14T23:43:25.826Z,18.73
2018-03-14T23:45:53.672Z,17.90
2018-03-14T23:48:25.004Z,16.50
2018-03-14T23:50:56.634Z,18.07
2018-03-14T23:53:28.787Z,17.57
2018-03-14T23:55:57.952Z,18.00
2018-03-14T23:58:25.462Z,21.00
